createdAt,value
2022-09-29T00:00:32.616Z,66
2022-09-29T00:03:02.259Z,67
2022-09-29T00:05:33.801Z,66
2022-09-29T00:08:05.423Z,66
2022-09-29T00:10:37.203Z,66
2022-09-29T00:13:08.977Z,67
2022-09-29T00:15:40.059Z,66
2022-09-29T00:18:14.322Z,64
2022-09-29T00:20:41.409Z,65
2022-09-29T00:23:14.085Z,66
2022-09-29T00:25:45.672Z,65
2022-09-29T00:28:17.023Z,64
2022-09-29T00:30:48.388Z,64
2022-09-29T00:33:19.649Z,65
2022-09-29T00:35:52.261Z,64
2022-09-29T00:38:23.259Z,64
2022-09-29T00:40:53.961Z,64
2022-09-29T00:43:25.089Z,64
2022-09-29T00:45:56.751Z,64
2022-09-29T00:48:26.513Z,63
2022-09-29T00:50:57.520Z,63
2022-09-29T00:53:29.164Z,64
2022-09-29T00:56:00.887Z,64
2022-09-29T00:58:32.443Z,64
2022-09-29T01:01:04.006Z,63
2022-09-29T01:03:36.587Z,63
2022-09-29T01:06:08.413Z,63
2022-09-29T01:08:40.266Z,63
2022-09-29T01:11:09.465Z,64
2022-09-29T01:13:40.983Z,63
2022-09-29T01:16:13.539Z,64
2022-09-29T01:18:44.804Z,65
2022-09-29T01:21:16.108Z,63
2022-09-29T01:23:47.257Z,64
2022-09-29T01:26:18.148Z,64
2022-09-29T01:28:49.641Z,63
2022-09-29T01:31:21.498Z,64
2022-09-29T01:33:52.352Z,63
2022-09-29T01:36:23.719Z,63
2022-09-29T01:38:54.783Z,63
2022-09-29T01:41:26.303Z,64
2022-09-29T01:43:57.632Z,64
2022-09-29T01:46:27.426Z,64
2022-09-29T01:48:59.139Z,64
2022-09-29T01:51:30.269Z,65
2022-09-29T01:54:02.160Z,64
2022-09-29T01:56:33.323Z,64
2022-09-29T01:59:04.628Z,64
2022-09-29T02:01:35.342Z,64
2022-09-29T02:04:06.494Z,65
2022-09-29T02:06:38.102Z,65
2022-09-29T02:09:09.137Z,64
2022-09-29T02:11:40.591Z,65
2022-09-29T02:14:12.316Z,64
2022-09-29T02:16:44.278Z,65
2022-09-29T02:19:15.747Z,65
2022-09-29T02:21:47.348Z,65
2022-09-29T02:24:18.532Z,65
2022-09-29T02:26:49.972Z,65
2022-09-29T02:29:21.363Z,64
2022-09-29T02:31:52.717Z,64
2022-09-29T02:34:24.308Z,64
2022-09-29T02:36:55.039Z,64
2022-09-29T02:39:26.229Z,65
2022-09-29T02:41:57.623Z,66
2022-09-29T02:44:29.047Z,66
2022-09-29T02:47:00.063Z,66
2022-09-29T02:49:31.468Z,66
2022-09-29T02:52:02.447Z,66
2022-09-29T02:54:34.937Z,65
2022-09-29T02:57:05.597Z,66
2022-09-29T02:59:37.159Z,66
2022-09-29T03:02:07.331Z,65
2022-09-29T03:04:38.657Z,65
2022-09-29T03:07:10.486Z,65
2022-09-29T03:09:41.556Z,66
2022-09-29T03:12:14.281Z,67
2022-09-29T03:14:45.444Z,66
2022-09-29T03:17:16.637Z,67
2022-09-29T03:19:48.415Z,66
2022-09-29T03:22:19.637Z,66
2022-09-29T03:24:52.239Z,66
2022-09-29T03:27:24.159Z,66
2022-09-29T03:29:55.693Z,66
2022-09-29T03:32:27.321Z,66
2022-09-29T03:34:58.983Z,66
2022-09-29T03:37:30.696Z,66
2022-09-29T03:40:02.790Z,66
2022-09-29T03:42:35.849Z,66
2022-09-29T03:45:07.493Z,66
2022-09-29T03:47:39.651Z,66
2022-09-29T03:50:11.159Z,66
2022-09-29T03:52:42.680Z,66
2022-09-29T03:55:14.084Z,66
2022-09-29T03:57:45.779Z,65
2022-09-29T04:00:16.457Z,66
2022-09-29T04:02:48.675Z,65
2022-09-29T04:05:20.332Z,66
2022-09-29T04:07:51.689Z,66
2022-09-29T04:10:22.601Z,65
2022-09-29T04:12:53.882Z,66
2022-09-29T04:15:25.103Z,65
2022-09-29T04:17:56.469Z,66
2022-09-29T04:20:29.191Z,65
2022-09-29T04:23:00.620Z,66
2022-09-29T04:25:33.802Z,66
2022-09-29T04:28:04.096Z,66
2022-09-29T04:30:36.216Z,65
2022-09-29T04:33:07.242Z,65
2022-09-29T04:35:38.827Z,66
2022-09-29T04:38:09.992Z,66
2022-09-29T04:40:41.300Z,66
2022-09-29T04:43:12.432Z,66
2022-09-29T04:45:43.584Z,67
2022-09-29T04:48:14.436Z,67
2022-09-29T04:50:45.772Z,66
2022-09-29T04:53:17.381Z,66
2022-09-29T04:55:49.184Z,67
2022-09-29T04:58:20.452Z,66
2022-09-29T05:00:51.937Z,66
2022-09-29T05:03:23.703Z,66
2022-09-29T05:05:56.268Z,68
2022-09-29T05:08:27.018Z,68
2022-09-29T05:10:58.999Z,68
2022-09-29T05:13:30.759Z,68
2022-09-29T05:16:01.962Z,67
2022-09-29T05:18:31.726Z,68
2022-09-29T05:21:23.135Z,68
2022-09-29T05:23:34.074Z,67
2022-09-29T05:26:05.323Z,67
2022-09-29T05:28:36.387Z,67
2022-09-29T05:31:07.769Z,67
2022-09-29T05:33:38.908Z,66
2022-09-29T05:36:10.465Z,66
2022-09-29T05:38:42.239Z,66
2022-09-29T05:41:14.951Z,67
2022-09-29T05:43:46.232Z,67
2022-09-29T05:46:18.585Z,69
2022-09-29T05:48:49.707Z,69
2022-09-29T05:51:23.122Z,70
2022-09-29T05:53:53.640Z,71
2022-09-29T05:56:26.148Z,71
2022-09-29T05:58:57.187Z,71
2022-09-29T06:01:28.858Z,71
2022-09-29T06:03:59.610Z,71
2022-09-29T06:06:30.757Z,72
2022-09-29T06:09:01.709Z,71
2022-09-29T06:11:32.734Z,71
2022-09-29T06:14:04.185Z,72
2022-09-29T06:16:39.331Z,71
2022-09-29T06:19:11.042Z,71
2022-09-29T06:21:41.928Z,73
2022-09-29T06:24:13.606Z,72
2022-09-29T06:26:45.065Z,72
2022-09-29T06:29:15.938Z,72
2022-09-29T06:31:47.364Z,73
2022-09-29T06:34:18.226Z,72
2022-09-29T06:36:48.877Z,72
2022-09-29T06:39:20.316Z,72
2022-09-29T06:41:51.897Z,72
2022-09-29T06:44:22.970Z,72
2022-09-29T06:46:54.203Z,72
2022-09-29T06:49:24.872Z,72
2022-09-29T06:51:55.198Z,73
2022-09-29T06:54:26.345Z,72
2022-09-29T06:56:56.999Z,72
2022-09-29T06:59:27.779Z,72
2022-09-29T07:02:01.357Z,72
2022-09-29T07:04:32.645Z,71
2022-09-29T07:07:04.440Z,72
2022-09-29T07:09:35.533Z,72
2022-09-29T07:12:06.381Z,72
2022-09-29T07:14:37.611Z,71
2022-09-29T07:17:08.878Z,71
2022-09-29T07:19:39.301Z,71
2022-09-29T07:22:10.733Z,71
2022-09-29T07:24:42.061Z,71
2022-09-29T07:27:14.105Z,72
2022-09-29T07:29:52.898Z,72
2022-09-29T07:32:26.579Z,71
2022-09-29T07:34:47.824Z,71
2022-09-29T07:37:20.961Z,71
2022-09-29T07:39:52.323Z,71
2022-09-29T07:42:23.561Z,71
2022-09-29T07:44:54.344Z,71
2022-09-29T07:47:25.323Z,71
2022-09-29T07:49:56.051Z,71
2022-09-29T07:52:27.233Z,71
2022-09-29T07:54:57.751Z,71
2022-09-29T07:57:29.034Z,71
2022-09-29T08:00:00.416Z,71
2022-09-29T08:02:31.488Z,70
2022-09-29T08:05:06.880Z,71
2022-09-29T08:07:33.346Z,70
2022-09-29T08:10:13.224Z,70
2022-09-29T08:12:42.241Z,69
2022-09-29T08:15:07.059Z,70
2022-09-29T08:17:37.845Z,69
2022-09-29T08:20:09.083Z,69
2022-09-29T08:22:40.894Z,69
2022-09-29T08:25:12.361Z,69
2022-09-29T08:27:52.670Z,71
2022-09-29T08:30:13.743Z,69
2022-09-29T08:32:44.270Z,69
2022-09-29T08:35:15.488Z,67
2022-09-29T08:37:46.073Z,67
2022-09-29T08:40:20.301Z,66
2022-09-29T08:42:51.476Z,66
2022-09-29T08:45:22.410Z,65
2022-09-29T08:47:53.385Z,66
2022-09-29T08:50:24.527Z,66
2022-09-29T08:52:55.320Z,65
2022-09-29T08:55:26.237Z,66
2022-09-29T08:57:57.221Z,63
2022-09-29T09:00:28.321Z,63
2022-09-29T09:02:59.262Z,63
2022-09-29T09:05:29.645Z,63
2022-09-29T09:08:02.059Z,63
2022-09-29T09:10:31.908Z,63
2022-09-29T09:13:03.140Z,61
2022-09-29T09:15:34.333Z,61
2022-09-29T09:18:05.642Z,60
2022-09-29T09:20:36.455Z,59
2022-09-29T09:23:07.804Z,59
2022-09-29T09:25:38.804Z,59
2022-09-29T09:28:09.736Z,58
2022-09-29T09:30:40.982Z,57
2022-09-29T09:33:14.968Z,56
2022-09-29T09:35:54.205Z,55
2022-09-29T09:38:13.745Z,54
2022-09-29T09:40:44.499Z,55
2022-09-29T09:43:15.741Z,54
2022-09-29T09:45:46.888Z,55
2022-09-29T09:48:22.167Z,55
2022-09-29T09:50:48.685Z,56
2022-09-29T09:53:19.704Z,55
2022-09-29T09:55:50.279Z,56
2022-09-29T09:58:21.549Z,57
2022-09-29T10:00:52.045Z,57
2022-09-29T10:03:22.361Z,56
2022-09-29T10:05:53.895Z,55
2022-09-29T10:08:25.341Z,56
2022-09-29T10:10:58.880Z,56
2022-09-29T10:13:26.974Z,57
2022-09-29T10:15:59.253Z,57
2022-09-29T10:18:30.354Z,56
2022-09-29T10:21:02.487Z,54
2022-09-29T10:23:33.738Z,54
2022-09-29T10:26:05.160Z,54
2022-09-29T10:28:36.358Z,56
2022-09-29T10:31:08.343Z,55
2022-09-29T10:33:39.419Z,54
2022-09-29T10:36:10.267Z,53
2022-09-29T10:38:40.697Z,54
2022-09-29T10:41:11.289Z,54
2022-09-29T10:43:41.805Z,54
2022-09-29T10:46:12.329Z,51
2022-09-29T10:48:43.967Z,50
2022-09-29T10:51:14.719Z,51
2022-09-29T10:53:45.981Z,53
2022-09-29T10:56:16.448Z,51
2022-09-29T10:58:58.781Z,50
2022-09-29T11:01:18.334Z,50
2022-09-29T11:03:49.496Z,50
2022-09-29T11:06:20.475Z,52
2022-09-29T11:08:52.005Z,52
2022-09-29T11:11:23.382Z,52
2022-09-29T11:13:54.397Z,52
2022-09-29T11:16:25.180Z,51
2022-09-29T11:18:56.178Z,53
2022-09-29T11:21:26.414Z,51
2022-09-29T11:23:58.859Z,50
2022-09-29T11:26:31.145Z,50
2022-09-29T11:29:03.118Z,51
2022-09-29T11:31:33.904Z,51
2022-09-29T11:34:04.652Z,52
2022-09-29T11:36:35.290Z,51
2022-09-29T11:39:05.725Z,51
2022-09-29T11:41:36.863Z,51
2022-09-29T11:44:06.923Z,51
2022-09-29T11:46:38.653Z,52
2022-09-29T11:49:09.688Z,51
2022-09-29T11:51:40.893Z,51
2022-09-29T11:54:11.878Z,51
2022-09-29T11:56:42.147Z,52
2022-09-29T11:59:13.819Z,51
2022-09-29T12:01:45.002Z,51
2022-09-29T12:04:15.756Z,50
2022-09-29T12:06:46.374Z,50
2022-09-29T12:09:17.566Z,52
2022-09-29T12:12:05.090Z,50
2022-09-29T12:14:18.846Z,52
2022-09-29T12:16:49.735Z,52
2022-09-29T12:19:20.627Z,53
2022-09-29T12:21:52.568Z,52
2022-09-29T12:24:23.684Z,51
2022-09-29T12:26:54.523Z,51
2022-09-29T12:29:25.392Z,50
2022-09-29T12:31:56.928Z,50
2022-09-29T12:34:27.458Z,51
2022-09-29T12:36:59.178Z,51
2022-09-29T12:39:32.086Z,50
2022-09-29T12:42:03.178Z,51
2022-09-29T12:44:34.568Z,51
2022-09-29T12:47:07.193Z,52
2022-09-29T12:49:38.223Z,53
2022-09-29T12:52:09.358Z,53
2022-09-29T12:54:40.607Z,53
2022-09-29T12:57:10.722Z,54
2022-09-29T12:59:41.754Z,55
2022-09-29T13:02:13.887Z,54
2022-09-29T13:04:43.485Z,54
2022-09-29T13:07:16.167Z,55
2022-09-29T13:09:47.204Z,55
2022-09-29T13:12:18.342Z,55
2022-09-29T13:14:48.667Z,56
2022-09-29T13:17:19.473Z,56
2022-09-29T13:19:57.636Z,56
2022-09-29T13:22:21.572Z,56
2022-09-29T13:24:52.444Z,56
2022-09-29T13:27:21.759Z,55
2022-09-29T13:29:52.543Z,55
2022-09-29T13:32:23.041Z,54
2022-09-29T13:34:54.130Z,53
2022-09-29T13:37:25.265Z,52
2022-09-29T13:39:57.960Z,53
2022-09-29T13:42:26.877Z,52
2022-09-29T13:44:57.679Z,53
2022-09-29T13:47:28.759Z,54
2022-09-29T13:50:00.110Z,54
2022-09-29T13:52:30.658Z,54
2022-09-29T13:55:01.673Z,54
2022-09-29T13:57:32.630Z,55
2022-09-29T14:00:03.151Z,55
2022-09-29T14:02:34.347Z,55
2022-09-29T14:05:05.476Z,55
2022-09-29T14:07:36.622Z,55
2022-09-29T14:10:07.500Z,56
2022-09-29T14:12:38.764Z,57
2022-09-29T14:15:08.902Z,57
2022-09-29T14:17:40.625Z,56
2022-09-29T14:20:11.211Z,56
2022-09-29T14:22:42.052Z,56
2022-09-29T14:25:14.071Z,55
2022-09-29T14:27:45.262Z,55
2022-09-29T14:30:16.386Z,55
2022-09-29T14:32:47.705Z,55
2022-09-29T14:35:18.522Z,56
2022-09-29T14:37:49.365Z,55
2022-09-29T14:40:20.624Z,55
2022-09-29T14:42:51.972Z,54
2022-09-29T14:45:22.962Z,54
2022-09-29T14:47:53.497Z,53
2022-09-29T14:50:24.779Z,54
2022-09-29T14:52:56.344Z,54
2022-09-29T14:55:27.542Z,54
2022-09-29T14:57:59.232Z,55
2022-09-29T15:00:35.354Z,55
2022-09-29T15:03:23.803Z,56
2022-09-29T15:05:38.949Z,56
2022-09-29T15:08:10.834Z,57
2022-09-29T15:10:41.855Z,57
2022-09-29T15:13:12.897Z,57
2022-09-29T15:15:46.239Z,57
2022-09-29T15:18:18.944Z,58
2022-09-29T15:20:50.280Z,58
2022-09-29T15:23:22.029Z,58
2022-09-29T15:25:54.238Z,58
2022-09-29T15:28:29.972Z,58
2022-09-29T15:31:01.719Z,59
2022-09-29T15:33:37.974Z,59
2022-09-29T15:36:09.167Z,59
2022-09-29T15:38:46.193Z,60
2022-09-29T15:41:18.142Z,59
2022-09-29T15:43:49.512Z,60
2022-09-29T15:46:20.404Z,60
2022-09-29T15:48:54.328Z,60
2022-09-29T15:51:26.519Z,61
2022-09-29T15:54:00.743Z,61
2022-09-29T15:56:36.480Z,61
2022-09-29T15:59:07.628Z,61
2022-09-29T16:01:44.462Z,62
2022-09-29T16:04:18.824Z,62
2022-09-29T16:06:50.570Z,62
2022-09-29T16:09:27.292Z,62
2022-09-29T16:11:58.906Z,62
2022-09-29T16:14:31.196Z,63
2022-09-29T16:17:02.222Z,63
2022-09-29T16:19:37.739Z,63
2022-09-29T16:22:14.108Z,63
2022-09-29T16:24:45.138Z,63
2022-09-29T16:27:15.776Z,63
2022-09-29T16:29:46.590Z,64
2022-09-29T16:32:17.379Z,64
2022-09-29T16:34:48.467Z,64
2022-09-29T16:37:22.537Z,65
2022-09-29T16:39:54.931Z,65
2022-09-29T16:42:32.559Z,65
2022-09-29T16:45:03.470Z,64
2022-09-29T16:47:36.933Z,65
2022-09-29T16:50:11.155Z,65
2022-09-29T16:52:39.707Z,65
2022-09-29T16:55:11.164Z,65
2022-09-29T16:57:46.677Z,65
2022-09-29T17:00:18.860Z,64
2022-09-29T17:02:50.855Z,65
2022-09-29T17:05:21.748Z,65
2022-09-29T17:07:52.513Z,65
2022-09-29T17:10:23.319Z,65
2022-09-29T17:12:53.924Z,65
2022-09-29T17:15:26.178Z,65
2022-09-29T17:17:56.679Z,65
2022-09-29T17:20:34.006Z,65
2022-09-29T17:23:04.869Z,65
2022-09-29T17:25:35.216Z,65
2022-09-29T17:28:12.320Z,66
2022-09-29T17:30:44.185Z,65
2022-09-29T17:33:18.011Z,66
2022-09-29T17:35:56.340Z,66
2022-09-29T17:38:24.335Z,66
2022-09-29T17:40:59.825Z,66
2022-09-29T17:43:32.817Z,66
2022-09-29T17:46:10.483Z,66
2022-09-29T17:48:47.743Z,66
2022-09-29T17:51:23.285Z,66
2022-09-29T17:53:54.545Z,65
2022-09-29T17:56:30.183Z,66
2022-09-29T17:59:01.261Z,65
2022-09-29T18:01:31.778Z,65
2022-09-29T18:04:03.226Z,66
2022-09-29T18:06:34.365Z,66
2022-09-29T18:09:11.697Z,66
2022-09-29T18:11:42.012Z,66
2022-09-29T18:14:12.833Z,66
2022-09-29T18:16:44.791Z,66
2022-09-29T18:19:15.366Z,66
2022-09-29T18:21:52.689Z,66
2022-09-29T18:24:29.943Z,66
2022-09-29T18:27:02.082Z,66
2022-09-29T18:29:32.832Z,66
2022-09-29T18:32:03.844Z,66
2022-09-29T18:34:37.821Z,66
2022-09-29T18:37:08.413Z,66
2022-09-29T18:39:40.821Z,67
2022-09-29T18:42:13.930Z,67
2022-09-29T18:44:50.148Z,67
2022-09-29T18:47:21.432Z,67
2022-09-29T18:49:53.623Z,67
2022-09-29T18:52:25.981Z,66
2022-09-29T18:54:55.958Z,67
2022-09-29T18:57:28.570Z,67
2022-09-29T18:59:59.975Z,68
2022-09-29T19:02:31.863Z,67
2022-09-29T19:05:02.464Z,67
2022-09-29T19:07:34.253Z,67
2022-09-29T19:10:05.946Z,68
2022-09-29T19:12:37.474Z,68
2022-09-29T19:15:14.740Z,68
2022-09-29T19:17:45.628Z,67
2022-09-29T19:20:16.646Z,67
2022-09-29T19:22:47.519Z,67
2022-09-29T19:25:19.563Z,68
2022-09-29T19:27:56.563Z,69
2022-09-29T19:30:32.869Z,68
2022-09-29T19:33:09.600Z,68
2022-09-29T19:35:42.371Z,69
2022-09-29T19:38:15.258Z,69
2022-09-29T19:40:49.113Z,69
2022-09-29T19:43:29.880Z,69
2022-09-29T19:46:06.389Z,69
2022-09-29T19:48:38.327Z,70
2022-09-29T19:51:09.854Z,69
2022-09-29T19:53:48.625Z,70
2022-09-29T19:56:18.033Z,69
2022-09-29T19:58:50.082Z,69
2022-09-29T20:01:24.734Z,70
2022-09-29T20:03:57.790Z,70
2022-09-29T20:06:29.460Z,70
2022-09-29T20:09:02.806Z,70
2022-09-29T20:11:34.312Z,70
2022-09-29T20:14:06.965Z,70
2022-09-29T20:16:39.183Z,69
2022-09-29T20:19:10.234Z,70
2022-09-29T20:21:47.004Z,70
2022-09-29T20:24:18.910Z,72
2022-09-29T20:26:50.863Z,71
2022-09-29T20:29:22.772Z,72
2022-09-29T20:31:56.663Z,72
2022-09-29T20:34:28.374Z,71
2022-09-29T20:36:59.875Z,70
2022-09-29T20:39:31.632Z,70
2022-09-29T20:42:03.495Z,70
2022-09-29T20:44:35.007Z,71
2022-09-29T20:47:09.894Z,71
2022-09-29T20:49:41.635Z,70
2022-09-29T20:52:16.292Z,70
2022-09-29T20:54:48.417Z,69
2022-09-29T20:57:21.776Z,68
2022-09-29T20:59:54.580Z,69
2022-09-29T21:02:29.211Z,68
2022-09-29T21:05:00.800Z,68
2022-09-29T21:07:32.514Z,67
2022-09-29T21:10:04.495Z,67
2022-09-29T21:12:36.311Z,66
2022-09-29T21:15:09.192Z,66
2022-09-29T21:17:40.616Z,66
2022-09-29T21:20:12.941Z,66
2022-09-29T21:22:46.743Z,65
2022-09-29T21:25:18.581Z,66
2022-09-29T21:27:50.857Z,65
2022-09-29T21:30:23.931Z,64
2022-09-29T21:32:56.234Z,65
2022-09-29T21:35:28.911Z,66
2022-09-29T21:37:59.259Z,65
2022-09-29T21:40:32.021Z,64
2022-09-29T21:43:04.637Z,64
2022-09-29T21:45:37.599Z,64
2022-09-29T21:48:09.372Z,65
2022-09-29T21:50:42.353Z,64
2022-09-29T21:53:14.879Z,65
2022-09-29T21:55:46.770Z,65
2022-09-29T21:58:18.294Z,64
2022-09-29T22:00:51.461Z,65
2022-09-29T22:03:24.069Z,65
2022-09-29T22:05:57.176Z,65
2022-09-29T22:08:29.927Z,64
2022-09-29T22:11:02.412Z,65
2022-09-29T22:13:34.959Z,65
2022-09-29T22:16:06.891Z,65
2022-09-29T22:18:42.232Z,64
2022-09-29T22:21:10.561Z,64
2022-09-29T22:23:44.070Z,65
2022-09-29T22:26:16.096Z,65
2022-09-29T22:28:47.899Z,65
2022-09-29T22:31:19.752Z,64
2022-09-29T22:33:51.592Z,63
2022-09-29T22:36:23.457Z,62
2022-09-29T22:38:54.290Z,62
2022-09-29T22:41:23.549Z,62
2022-09-29T22:43:55.922Z,62
2022-09-29T22:46:27.877Z,63
2022-09-29T22:48:59.027Z,63
2022-09-29T22:51:30.819Z,64
2022-09-29T22:54:04.332Z,64
2022-09-29T22:56:35.386Z,64
2022-09-29T22:59:06.977Z,65
2022-09-29T23:01:38.488Z,64
2022-09-29T23:04:09.822Z,63
2022-09-29T23:06:41.027Z,63
2022-09-29T23:09:12.473Z,62
2022-09-29T23:11:43.510Z,63
2022-09-29T23:14:14.512Z,63
2022-09-29T23:16:46.310Z,63
2022-09-29T23:19:17.545Z,63
2022-09-29T23:21:48.913Z,63
2022-09-29T23:24:20.099Z,63
2022-09-29T23:26:51.598Z,63
2022-09-29T23:29:22.838Z,63
2022-09-29T23:31:54.247Z,62
2022-09-29T23:34:25.583Z,62
2022-09-29T23:36:56.533Z,62
2022-09-29T23:39:27.324Z,62
2022-09-29T23:41:58.755Z,62
2022-09-29T23:44:30.786Z,63
2022-09-29T23:47:03.603Z,63
2022-09-29T23:49:34.526Z,62
2022-09-29T23:52:06.310Z,61
2022-09-29T23:54:37.264Z,62
2022-09-29T23:57:08.081Z,63
2022-09-29T23:59:39.001Z,63
